Time;durP1;ratioP1;P1;durP2;ratioP2;P2;SDS_P1;SDS_P2;PMS_P1;PMS_P2;Temp;Humidity;BMP_temperature;BMP_pressure;BME280_temperature;BME280_humidity;BME280_pressure;Samples;Min_cycle;Max_cycle;Signal;HPM_P1;HPM_P2
2022/06/13 00:00:07;;;;;;;9.43;4.90;;;18.60;99.90;;;;;;5050003;28;20377;-59
2022/06/13 00:02:34;;;;;;;10.82;4.30;;;18.40;72.90;;;;;;5049222;28;20443;-54
2022/06/13 00:05:01;;;;;;;8.60;4.17;;;18.30;52.90;;;;;;5049020;28;20394;-60
2022/06/13 00:07:27;;;;;;;9.77;4.60;;;18.50;92.70;;;;;;5031831;28;20403;-60
2022/06/13 00:09:52;;;;;;;9.25;4.40;;;18.60;99.90;;;;;;5048413;28;20386;-60
2022/06/13 00:12:18;;;;;;;8.73;4.50;;;18.60;99.90;;;;;;5048568;28;20401;-60
2022/06/13 00:14:44;;;;;;;12.70;4.90;;;18.60;99.90;;;;;;5048850;28;20405;-60
2022/06/13 00:17:10;;;;;;;9.00;4.40;;;18.60;29.10;;;;;;5048528;28;20897;-60
2022/06/13 00:19:36;;;;;;;10.43;4.93;;;18.70;19.00;;;;;;5048573;28;20386;-60
2022/06/13 00:22:03;;;;;;;9.77;4.88;;;18.60;30.20;;;;;;5049018;28;20401;-60
2022/06/13 00:24:29;;;;;;;9.27;4.50;;;18.50;68.50;;;;;;5049404;28;20487;-59
2022/06/13 00:26:54;;;;;;;8.85;4.40;;;18.40;99.90;;;;;;5048438;28;20867;-61
2022/06/13 00:29:20;;;;;;;9.90;4.30;;;18.40;99.90;;;;;;5049577;28;20378;-60
2022/06/13 00:31:46;;;;;;;8.88;4.82;;;18.40;67.00;;;;;;5048425;28;20850;-61
2022/06/13 00:34:11;;;;;;;8.00;4.20;;;18.40;99.90;;;;;;5031034;28;20941;-61
2022/06/13 00:36:37;;;;;;;7.90;4.50;;;18.40;99.90;;;;;;5047437;28;20389;-60
2022/06/13 00:39:03;;;;;;;9.63;4.40;;;18.40;99.90;;;;;;5048608;28;20801;-61
2022/06/13 00:41:34;;;;;;;9.27;4.70;;;18.30;73.30;;;;;;5030954;28;20809;-59
2022/06/13 00:44:00;;;;;;;9.18;4.20;;;18.30;86.90;;;;;;5048227;28;20398;-59
2022/06/13 00:46:34;;;;;;;9.03;4.60;;;18.30;56.10;;;;;;5048648;28;20805;-60
2022/06/13 00:49:11;;;;;;;7.80;4.30;;;18.40;57.70;;;;;;5048582;28;20396;-60
2022/06/13 00:51:43;;;;;;;10.13;4.60;;;18.50;58.30;;;;;;5047702;28;20397;-59
2022/06/13 00:54:12;;;;;;;8.77;4.75;;;18.60;23.00;;;;;;5049112;28;20866;-59
2022/06/13 00:56:38;;;;;;;7.85;4.40;;;18.60;68.20;;;;;;5030168;28;20786;-60
2022/06/13 00:59:09;;;;;;;7.57;4.50;;;18.50;53.70;;;;;;5048519;28;20816;-59
2022/06/13 01:01:35;;;;;;;9.73;5.30;;;18.50;99.90;;;;;;5048394;28;20559;-53
2022/06/13 01:04:06;;;;;;;8.90;4.50;;;18.50;96.00;;;;;;5044844;28;20496;-58
2022/06/13 01:06:36;;;;;;;10.57;4.57;;;18.40;99.90;;;;;;5047780;28;20732;-59
2022/06/13 01:09:05;;;;;;;10.00;4.90;;;18.50;99.90;;;;;;5050821;28;20448;-59
2022/06/13 01:11:31;;;;;;;9.15;5.25;;;18.60;99.90;;;;;;5051767;28;20451;-59
2022/06/13 01:13:57;;;;;;;8.52;5.00;;;18.60;99.90;;;;;;5052013;28;20408;-59
2022/06/13 01:16:50;;;;;;;11.37;5.10;;;18.60;99.90;;;;;;5052397;28;20393;-59
2022/06/13 01:19:52;;;;;;;10.73;5.22;;;18.60;99.90;;;;;;5052239;28;20397;-59
2022/06/13 01:22:51;;;;;;;10.52;5.40;;;18.60;99.90;;;;;;5052027;28;20463;-59
2022/06/13 01:25:32;;;;;;;8.77;5.80;;;18.50;99.90;;;;;;5041523;28;20440;-57
2022/06/13 01:28:30;;;;;;;10.07;6.13;;;18.40;99.90;;;;;;5052001;28;20431;-57
2022/06/13 01:31:17;;;;;;;11.73;5.88;;;18.30;99.90;;;;;;5051666;28;20472;-59
2022/06/13 01:34:11;;;;;;;10.43;6.43;;;18.30;99.90;;;;;;5051342;28;20413;-60
2022/06/13 01:37:01;;;;;;;10.10;5.95;;;18.10;99.90;;;;;;5033555;28;20397;-54
2022/06/13 01:39:45;;;;;;;10.40;5.93;;;18.10;99.90;;;;;;5051459;28;20756;-59
2022/06/13 01:43:04;;;;;;;9.10;5.40;;;18.00;99.90;;;;;;5049257;28;20399;-60
2022/06/13 01:45:45;;;;;;;11.25;5.80;;;18.00;99.90;;;;;;5018947;28;20436;-59
2022/06/13 01:48:26;;;;;;;10.60;5.60;;;18.10;99.90;;;;;;5052110;28;20400;-60
2022/06/13 01:51:13;;;;;;;11.00;5.30;;;18.10;99.90;;;;;;5050817;28;20859;-60
2022/06/13 01:53:48;;;;;;;9.55;5.30;;;18.00;99.90;;;;;;5050967;28;20413;-58
2022/06/13 01:56:16;;;;;;;9.70;5.40;;;18.00;99.90;;;;;;5051920;28;20413;-59
2022/06/13 01:58:45;;;;;;;8.37;4.60;;;18.00;99.90;;;;;;5050820;28;20381;-59
2022/06/13 02:01:26;;;;;;;8.38;4.55;;;17.90;99.90;;;;;;5052026;28;20484;-59
2022/06/13 02:04:01;;;;;;;8.65;5.15;;;17.90;99.90;;;;;;5051416;28;20393;-59
2022/06/13 02:06:31;;;;;;;6.93;4.10;;;17.90;99.90;;;;;;5051917;28;20386;-59
2022/06/13 02:09:00;;;;;;;7.70;4.68;;;18.10;99.90;;;;;;5050642;28;20387;-59
2022/06/13 02:11:32;;;;;;;10.07;4.15;;;18.10;99.90;;;;;;5051534;28;20378;-59
2022/06/13 02:14:13;;;;;;;7.50;4.60;;;18.10;99.90;;;;;;5050217;28;22242;-59
2022/06/13 02:17:07;;;;;;;9.13;4.70;;;18.20;99.90;;;;;;5050337;28;20399;-59
2022/06/13 02:19:56;;;;;;;8.30;4.10;;;18.10;99.90;;;;;;5050869;28;20412;-60
2022/06/13 02:22:43;;;;;;;9.60;4.50;;;18.10;99.90;;;;;;5050730;28;20604;-56
2022/06/13 02:25:17;;;;;;;11.60;4.20;;;18.10;67.80;;;;;;5051062;28;20405;-57
2022/06/13 02:27:47;;;;;;;8.93;4.80;;;17.90;45.80;;;;;;5050720;28;20432;-57
2022/06/13 02:30:17;;;;;;;11.30;4.07;;;17.80;39.60;;;;;;5050497;28;20817;-57
2022/06/13 02:33:03;;;;;;;8.90;4.45;;;17.80;26.90;;;;;;5050013;28;20399;-60
2022/06/13 02:35:40;;;;;;;10.15;4.00;;;17.70;1.00;;;;;;5050994;28;20907;-60
2022/06/13 02:38:26;;;;;;;6.88;3.90;;;17.60;1.00;;;;;;5050932;28;20400;-60
2022/06/13 02:41:00;;;;;;;7.70;4.40;;;17.60;1.00;;;;;;5049329;28;20400;-60
2022/06/13 02:43:41;;;;;;;8.63;4.10;;;17.60;17.20;;;;;;5050931;28;20480;-60
2022/06/13 02:46:17;;;;;;;12.45;4.80;;;17.50;8.20;;;;;;5050451;28;20446;-60
2022/06/13 02:48:52;;;;;;;10.90;4.75;;;17.50;1.00;;;;;;5049678;28;20386;-60
2022/06/13 02:51:41;;;;;;;8.77;4.40;;;17.60;17.30;;;;;;5050699;28;20440;-59
2022/06/13 02:54:33;;;;;;;11.55;4.10;;;17.50;50.10;;;;;;5037682;28;20421;-59
2022/06/13 02:57:25;;;;;;;10.73;4.70;;;17.40;1.00;;;;;;5049483;28;21041;-59
2022/06/13 03:00:19;;;;;;;9.43;4.10;;;17.30;1.00;;;;;;5049970;28;20389;-59
2022/06/13 03:03:00;;;;;;;12.07;5.53;;;17.20;1.00;;;;;;5049679;28;20393;-59
2022/06/13 03:05:51;;;;;;;9.00;4.10;;;17.10;1.00;;;;;;5032146;28;20788;-58
2022/06/13 03:08:34;;;;;;;10.15;4.60;;;16.90;1.00;;;;;;5049710;28;20510;-60
2022/06/13 03:11:06;;;;;;;9.52;4.38;;;16.90;1.00;;;;;;5047239;28;20442;-60
2022/06/13 03:13:54;;;;;;;9.57;4.30;;;16.80;1.00;;;;;;5048781;28;20409;-59
2022/06/13 03:16:31;;;;;;;8.10;3.80;;;16.80;1.00;;;;;;5036469;28;20455;-59
2022/06/13 03:19:19;;;;;;;8.38;4.05;;;16.70;1.00;;;;;;5049108;28;20490;-60
2022/06/13 03:21:49;;;;;;;11.07;4.70;;;16.60;1.00;;;;;;5049190;28;20389;-60
2022/06/13 03:24:24;;;;;;;12.68;4.00;;;16.60;1.00;;;;;;5049816;28;20493;-59
2022/06/13 03:26:58;;;;;;;13.10;4.40;;;16.50;1.00;;;;;;5049117;28;20397;-57
2022/06/13 03:29:34;;;;;;;12.57;4.65;;;16.50;1.00;;;;;;5046859;28;20390;-60
2022/06/13 03:32:10;;;;;;;11.07;4.53;;;16.40;1.00;;;;;;5048697;28;20409;-59
2022/06/13 03:34:42;;;;;;;10.25;4.40;;;16.40;1.00;;;;;;5050095;28;20763;-58
2022/06/13 03:37:21;;;;;;;12.40;4.47;;;16.40;1.00;;;;;;5049410;28;20549;-59
2022/06/13 03:40:09;;;;;;;9.00;4.00;;;16.30;1.00;;;;;;5048789;28;20397;-59
2022/06/13 03:42:44;;;;;;;9.90;4.28;;;16.30;1.00;;;;;;5048588;28;20485;-59
2022/06/13 03:45:24;;;;;;;9.63;4.40;;;16.30;1.00;;;;;;5050158;28;20940;-59
2022/06/13 03:48:12;;;;;;;12.10;5.00;;;16.20;1.00;;;;;;5048877;28;20397;-59
2022/06/13 03:51:10;;;;;;;9.30;3.90;;;16.20;1.00;;;;;;5049166;28;20394;-55
2022/06/13 03:53:49;;;;;;;8.65;3.88;;;16.20;1.00;;;;;;5047959;28;20429;-59
2022/06/13 03:56:17;;;;;;;9.82;4.50;;;16.10;99.90;;;;;;5049254;28;20883;-59
2022/06/13 03:59:00;;;;;;;10.57;4.25;;;16.00;99.90;;;;;;5048895;28;20386;-59
2022/06/13 04:01:36;;;;;;;12.67;4.43;;;16.00;1.00;;;;;;5049571;28;20431;-59
2022/06/13 04:04:03;;;;;;;11.47;4.20;;;16.00;1.00;;;;;;5048479;28;20413;-59
2022/06/13 04:06:36;;;;;;;10.30;4.40;;;15.90;99.90;;;;;;5048963;28;20420;-60
2022/06/13 04:09:10;;;;;;;11.98;4.40;;;16.00;1.00;;;;;;5048343;28;20398;-56
2022/06/13 04:12:07;;;;;;;12.10;4.70;;;16.00;99.90;;;;;;5049329;28;20393;-58
2022/06/13 04:14:47;;;;;;;8.93;4.43;;;15.90;99.90;;;;;;5049133;28;20413;-58
2022/06/13 04:17:48;;;;;;;10.37;4.50;;;15.90;1.00;;;;;;5048256;28;20401;-59
2022/06/13 04:20:48;;;;;;;11.70;4.30;;;15.90;99.90;;;;;;5037786;28;20397;-59
2022/06/13 04:23:25;;;;;;;9.75;4.90;;;16.00;99.90;;;;;;5048904;28;20966;-58
2022/06/13 04:26:19;;;;;;;12.17;4.70;;;16.00;1.00;;;;;;5048008;28;20397;-59
2022/06/13 04:28:54;;;;;;;16.48;4.68;;;16.10;99.90;;;;;;5048104;28;20519;-58
2022/06/13 04:31:22;;;;;;;10.88;3.95;;;16.00;99.90;;;;;;5048896;28;20503;-58
2022/06/13 04:33:54;;;;;;;11.57;4.28;;;15.90;99.90;;;;;;5048311;28;20413;-59
2022/06/13 04:36:22;;;;;;;10.90;4.60;;;15.90;99.90;;;;;;5048462;28;20398;-58
2022/06/13 04:38:52;;;;;;;8.80;4.13;;;15.90;99.90;;;;;;5047673;28;20412;-58
2022/06/13 04:41:21;;;;;;;15.63;5.13;;;15.90;91.80;;;;;;5047960;28;20393;-59
2022/06/13 04:43:50;;;;;;;9.80;4.20;;;15.90;1.00;;;;;;5052426;28;20401;-56
2022/06/13 04:46:21;;;;;;;10.60;4.10;;;15.90;1.50;;;;;;5057702;28;20891;-59
2022/06/13 04:48:51;;;;;;;17.88;4.70;;;16.00;1.00;;;;;;5051864;28;20405;-58
2022/06/13 04:51:26;;;;;;;8.67;4.20;;;16.20;1.00;;;;;;5053024;28;20374;-58
2022/06/13 04:54:01;;;;;;;10.35;4.00;;;16.20;99.90;;;;;;5051814;28;20417;-58
2022/06/13 04:56:27;;;;;;;9.52;4.38;;;16.40;1.00;;;;;;5053136;28;20405;-57
2022/06/13 04:58:55;;;;;;;9.30;4.60;;;16.70;1.00;;;;;;5051971;28;20455;-59
2022/06/13 05:01:30;;;;;;;10.45;4.90;;;17.40;99.90;;;;;;5052129;28;20433;-57
2022/06/13 05:03:58;;;;;;;10.13;3.85;;;18.00;99.90;;;;;;5050984;28;20401;-59
2022/06/13 05:06:33;;;;;;;10.93;4.00;;;18.80;1.00;;;;;;5052352;28;20391;-58
2022/06/13 05:09:03;;;;;;;11.10;3.90;;;19.00;47.20;;;;;;5048978;28;20387;-57
2022/06/13 05:11:45;;;;;;;9.90;3.40;;;19.30;1.00;;;;;;5052040;28;20397;-58
2022/06/13 05:14:20;;;;;;;10.90;4.10;;;20.10;1.00;;;;;;5051436;28;20411;-58
2022/06/13 05:16:51;;;;;;;10.88;3.80;;;20.30;1.00;;;;;;5049835;28;20890;-58
2022/06/13 05:19:28;;;;;;;11.48;3.70;;;19.90;1.00;;;;;;5052171;28;20378;-58
2022/06/13 05:22:00;;;;;;;10.15;3.50;;;20.20;1.00;;;;;;5050627;28;20401;-58
2022/06/13 05:24:38;;;;;;;8.48;3.60;;;20.50;1.00;;;;;;5042932;28;20432;-57
2022/06/13 05:27:06;;;;;;;11.82;3.90;;;20.90;1.00;;;;;;5047835;28;20873;-59
2022/06/13 05:29:33;;;;;;;9.63;3.50;;;21.20;1.00;;;;;;5051121;28;20935;-58
2022/06/13 05:31:59;;;;;;;11.73;4.07;;;21.10;1.00;;;;;;5051596;28;20891;-59
2022/06/13 05:34:31;;;;;;;12.60;3.70;;;21.30;1.00;;;;;;5050326;28;20918;-59
2022/06/13 05:36:57;;;;;;;11.20;4.00;;;21.30;1.00;;;;;;5051499;28;20389;-58
2022/06/13 05:39:23;;;;;;;10.43;3.78;;;21.00;99.90;;;;;;5052126;28;20760;-58
2022/06/13 05:41:48;;;;;;;11.60;3.70;;;21.50;1.00;;;;;;5048232;28;20390;-59
2022/06/13 05:44:14;;;;;;;11.40;3.80;;;21.60;99.90;;;;;;5051915;28;20557;-59
2022/06/13 05:46:40;;;;;;;13.80;3.90;;;22.20;99.90;;;;;;5052175;28;20381;-55
2022/06/13 05:49:07;;;;;;;11.20;3.55;;;23.00;99.90;;;;;;5051461;28;20504;-58
2022/06/13 05:51:32;;;;;;;12.23;3.80;;;23.40;99.90;;;;;;5051690;28;20378;-57
2022/06/13 05:53:58;;;;;;;8.65;3.70;;;23.60;99.90;;;;;;5049995;28;20420;-57
2022/06/13 05:56:25;;;;;;;8.87;3.70;;;24.10;99.90;;;;;;5051966;28;20392;-57
2022/06/13 05:58:51;;;;;;;11.85;3.70;;;24.80;99.90;;;;;;5050961;28;20870;-57
2022/06/13 06:01:17;;;;;;;9.73;4.10;;;25.20;99.90;;;;;;5051429;28;20476;-56
2022/06/13 06:03:44;;;;;;;9.30;3.50;;;23.80;99.90;;;;;;5048793;28;20832;-54
2022/06/13 06:06:16;;;;;;;10.65;3.70;;;23.10;99.90;;;;;;5048197;28;20397;-57
2022/06/13 06:08:42;;;;;;;9.52;3.60;;;23.20;99.90;;;;;;5051965;28;20386;-53
2022/06/13 06:11:07;;;;;;;8.50;3.50;;;23.50;99.90;;;;;;5051032;28;20495;-57
2022/06/13 06:13:33;;;;;;;12.00;3.60;;;23.60;99.90;;;;;;5051636;28;20786;-57
2022/06/13 06:16:01;;;;;;;12.07;3.50;;;23.20;99.90;;;;;;5050978;28;20436;-58
2022/06/13 06:18:29;;;;;;;11.43;3.97;;;23.30;99.90;;;;;;5050944;28;20485;-57
2022/06/13 06:20:55;;;;;;;11.57;3.80;;;24.30;99.90;;;;;;5016414;28;20408;-59
2022/06/13 06:23:21;;;;;;;10.65;3.40;;;24.60;99.90;;;;;;5033020;28;20427;-59
2022/06/13 06:25:50;;;;;;;9.83;3.40;;;24.10;99.90;;;;;;5050147;28;20476;-58
2022/06/13 06:28:20;;;;;;;9.50;3.38;;;22.60;99.90;;;;;;5051744;28;20452;-59
2022/06/13 06:30:46;;;;;;;10.02;3.50;;;22.90;99.90;;;;;;5050601;28;20409;-56
2022/06/13 06:33:13;;;;;;;8.37;3.70;;;23.20;99.90;;;;;;5051563;28;20424;-59
2022/06/13 06:35:39;;;;;;;11.63;3.60;;;22.80;99.90;;;;;;5050771;28;20413;-59
2022/06/13 06:38:06;;;;;;;11.75;3.70;;;23.10;99.90;;;;;;5050729;28;20386;-58
2022/06/13 06:40:32;;;;;;;8.60;3.90;;;23.30;99.90;;;;;;5051249;28;20500;-59
2022/06/13 06:42:58;;;;;;;8.68;3.38;;;24.50;99.90;;;;;;5050385;28;20451;-59
2022/06/13 06:45:25;;;;;;;8.07;3.40;;;24.90;99.90;;;;;;5050988;28;21217;-57
2022/06/13 06:47:52;;;;;;;9.68;3.70;;;25.00;99.90;;;;;;5050712;28;20462;-59
2022/06/13 06:50:20;;;;;;;10.13;3.65;;;25.00;99.90;;;;;;5050905;28;20427;-58
2022/06/13 06:52:46;;;;;;;10.30;3.70;;;24.20;99.90;;;;;;5050748;28;20543;-57
2022/06/13 07:00:44;;;;;;;9.65;3.63;;;21.60;99.90;;;;;;5050469;28;20785;-55
2022/06/13 07:03:09;;;;;;;10.02;3.63;;;21.00;99.90;;;;;;5050630;28;20882;-58
2022/06/13 07:05:35;;;;;;;12.23;3.80;;;22.00;99.90;;;;;;5031798;28;20386;-59
2022/06/13 07:08:01;;;;;;;10.35;4.00;;;22.40;99.90;;;;;;5032024;28;20843;-57
2022/06/13 07:10:27;;;;;;;13.88;4.20;;;23.40;99.90;;;;;;5050249;28;20397;-59
2022/06/13 07:12:52;;;;;;;13.43;3.63;;;24.40;99.90;;;;;;5049430;28;20400;-58
2022/06/13 07:15:18;;;;;;;10.40;3.57;;;25.10;99.90;;;;;;5050657;28;21084;-58
2022/06/13 07:17:44;;;;;;;7.17;3.20;;;25.00;99.90;;;;;;5049504;28;20442;-55
2022/06/13 07:20:11;;;;;;;10.98;3.55;;;25.80;99.90;;;;;;5050287;28;20496;-58
2022/06/13 07:22:37;;;;;;;8.80;3.20;;;26.60;99.90;;;;;;5050003;28;20399;-58
2022/06/13 07:25:03;;;;;;;10.27;4.28;;;27.80;99.90;;;;;;5049752;28;20369;-58
2022/06/13 07:27:28;;;;;;;9.23;4.00;;;27.30;99.90;;;;;;5050252;28;20385;-57
2022/06/13 07:29:54;;;;;;;8.90;3.33;;;25.60;99.90;;;;;;5048081;28;20424;-58
2022/06/13 07:32:23;;;;;;;9.63;3.50;;;25.20;99.90;;;;;;5049891;28;20460;-58
2022/06/13 07:34:51;;;;;;;10.02;3.45;;;26.50;99.90;;;;;;5048515;28;20413;-58
2022/06/13 07:40:06;;;;;;;9.50;3.70;;;27.00;99.90;;;;;;5049469;28;20736;-58
2022/06/13 07:42:37;;;;;;;9.77;3.30;;;26.70;99.90;;;;;;5050179;28;20382;-58
2022/06/13 07:45:04;;;;;;;10.57;3.77;;;27.70;99.90;;;;;;5049196;28;20993;-58
2022/06/13 07:47:29;;;;;;;10.00;3.58;;;27.60;99.90;;;;;;5050089;28;20389;-58
2022/06/13 07:49:55;;;;;;;8.80;3.78;;;28.60;99.90;;;;;;5049203;28;20428;-58
2022/06/13 07:52:21;;;;;;;10.57;3.72;;;27.10;99.90;;;;;;5049691;28;20431;-58
2022/06/13 07:54:46;;;;;;;10.48;3.70;;;26.20;99.90;;;;;;5049301;28;20504;-57
2022/06/13 07:57:12;;;;;;;10.55;3.45;;;26.30;99.90;;;;;;5049437;28;20753;-58
2022/06/13 07:59:39;;;;;;;9.73;3.50;;;26.10;99.90;;;;;;5049893;28;20926;-58
2022/06/13 08:02:08;;;;;;;9.45;3.90;;;27.30;99.90;;;;;;5049114;28;20388;-58
2022/06/13 08:04:34;;;;;;;9.85;3.58;;;27.40;99.90;;;;;;5049671;28;20488;-58
2022/06/13 08:06:59;;;;;;;10.15;3.50;;;27.50;99.90;;;;;;5048517;28;20461;-58
2022/06/13 08:09:25;;;;;;;8.05;4.07;;;27.80;99.90;;;;;;5049896;28;20879;-58
2022/06/13 08:11:51;;;;;;;8.48;4.30;;;27.50;99.90;;;;;;5049023;28;20382;-58
2022/06/13 08:14:18;;;;;;;8.73;3.90;;;26.30;99.90;;;;;;5049490;28;20767;-58
2022/06/13 08:16:43;;;;;;;10.68;3.97;;;25.90;99.90;;;;;;5048922;28;20381;-55
2022/06/13 08:19:09;;;;;;;8.67;4.00;;;25.70;99.90;;;;;;5048857;28;20384;-58
2022/06/13 08:21:37;;;;;;;9.30;3.70;;;26.00;99.90;;;;;;5049844;28;20404;-58
2022/06/13 08:24:04;;;;;;;11.20;3.35;;;27.40;99.90;;;;;;5047847;28;20428;-57
2022/06/13 08:26:30;;;;;;;13.30;4.22;;;27.20;99.90;;;;;;5014782;28;20483;-56
2022/06/13 08:28:56;;;;;;;11.00;3.70;;;26.50;99.90;;;;;;5048562;28;20373;-58
2022/06/13 08:31:22;;;;;;;10.25;3.40;;;26.90;99.90;;;;;;5049673;28;20385;-57
2022/06/13 08:33:48;;;;;;;8.80;3.40;;;29.20;99.90;;;;;;5048371;28;20401;-58
2022/06/13 08:36:15;;;;;;;10.90;3.83;;;28.80;99.90;;;;;;5049547;28;20440;-58
2022/06/13 08:38:41;;;;;;;8.70;3.65;;;28.60;99.90;;;;;;5048905;28;20381;-59
2022/06/13 08:41:18;;;;;;;8.77;3.85;;;29.40;99.90;;;;;;5048210;28;20405;-58
2022/06/13 08:44:00;;;;;;;10.70;4.05;;;28.30;99.90;;;;;;5049220;28;20487;-56
2022/06/13 08:46:34;;;;;;;10.55;4.18;;;28.60;99.90;;;;;;5049097;28;20730;-58
2022/06/13 08:49:14;;;;;;;7.30;3.50;;;28.10;99.90;;;;;;5048289;28;20894;-58
2022/06/13 08:51:57;;;;;;;9.48;3.95;;;28.70;99.90;;;;;;5049220;28;20389;-59
2022/06/13 08:54:31;;;;;;;8.90;4.07;;;28.90;99.90;;;;;;5049066;28;20409;-58
2022/06/13 08:57:00;;;;;;;8.40;3.90;;;30.30;99.90;;;;;;5048511;28;20393;-58
2022/06/13 08:59:34;;;;;;;9.93;3.78;;;29.60;99.90;;;;;;5048954;28;20851;-58
2022/06/13 09:02:05;;;;;;;9.00;3.00;;;29.10;99.90;;;;;;5048437;28;20386;-58
2022/06/13 09:04:50;;;;;;;7.70;3.80;;;29.10;99.90;;;;;;5048949;28;20385;-58
2022/06/13 09:07:29;;;;;;;11.57;4.13;;;29.90;99.90;;;;;;5049091;28;20373;-59
2022/06/13 09:10:11;;;;;;;10.13;4.20;;;28.50;99.90;;;;;;5047895;28;20435;-58
2022/06/13 09:12:36;;;;;;;8.85;3.58;;;27.40;99.90;;;;;;5048787;28;20385;-56
2022/06/13 09:15:13;;;;;;;9.48;3.83;;;27.00;99.90;;;;;;5048197;28;20409;-58
2022/06/13 09:17:41;;;;;;;8.57;3.80;;;26.30;99.90;;;;;;5048869;28;20390;-59
2022/06/13 09:20:18;;;;;;;8.50;3.20;;;26.20;99.90;;;;;;5048489;28;20974;-59
2022/06/13 09:23:01;;;;;;;10.68;4.07;;;27.10;99.90;;;;;;5048626;28;20409;-55
2022/06/13 09:25:46;;;;;;;10.10;4.00;;;28.30;99.90;;;;;;5048374;28;20870;-58
2022/06/13 09:28:19;;;;;;;9.40;4.40;;;27.80;99.90;;;;;;5048424;28;20382;-59
2022/06/13 09:30:52;;;;;;;8.40;3.88;;;27.50;99.90;;;;;;5051799;28;20393;-56
2022/06/13 09:33:30;;;;;;;10.57;3.80;;;27.50;99.90;;;;;;5052550;28;20824;-59
2022/06/13 09:35:59;;;;;;;11.30;3.90;;;27.90;99.90;;;;;;5049085;28;20421;-58
2022/06/13 09:38:28;;;;;;;10.10;4.10;;;28.60;99.90;;;;;;5051725;28;20512;-57
2022/06/13 09:40:54;;;;;;;9.20;4.17;;;27.80;99.90;;;;;;5050628;28;20496;-58
2022/06/13 09:43:38;;;;;;;8.43;3.33;;;28.10;99.90;;;;;;5051464;28;20464;-57
2022/06/13 09:46:38;;;;;;;8.25;3.40;;;29.70;99.90;;;;;;5051366;28;20389;-58
2022/06/13 09:49:36;;;;;;;8.63;3.30;;;29.90;99.90;;;;;;5051451;28;20708;-58
2022/06/13 09:52:16;;;;;;;10.73;3.03;;;30.50;99.90;;;;;;5051381;28;20403;-57
2022/06/13 09:55:02;;;;;;;11.70;3.55;;;29.60;99.90;;;;;;5051884;28;20551;-58
2022/06/13 09:57:57;;;;;;;9.95;4.00;;;29.50;99.90;;;;;;5052237;28;20404;-58
2022/06/13 10:00:34;;;;;;;7.40;4.10;;;27.30;99.90;;;;;;5051844;28;20380;-58
2022/06/13 10:03:34;;;;;;;7.38;3.17;;;27.00;99.90;;;;;;5051075;28;20770;-58
2022/06/13 10:06:21;;;;;;;9.82;3.17;;;26.70;99.90;;;;;;5040019;28;20416;-58
2022/06/13 10:09:14;;;;;;;7.82;3.40;;;27.00;99.90;;;;;;5051213;28;20401;-55
2022/06/13 10:11:58;;;;;;;9.50;3.63;;;26.60;99.90;;;;;;5047549;28;20497;-58
2022/06/13 10:14:33;;;;;;;10.90;3.50;;;27.90;99.90;;;;;;5051195;28;20878;-58
2022/06/13 10:17:08;;;;;;;10.10;3.40;;;28.50;99.90;;;;;;5033009;28;20811;-59
2022/06/13 10:19:54;;;;;;;10.38;3.50;;;28.30;99.90;;;;;;5051704;28;20393;-58
2022/06/13 10:22:41;;;;;;;8.43;3.17;;;27.30;99.90;;;;;;5051601;28;20451;-59
2022/06/13 10:25:25;;;;;;;10.73;3.60;;;27.40;99.90;;;;;;5050643;28;20448;-58
2022/06/13 10:28:15;;;;;;;10.57;3.60;;;27.30;99.90;;;;;;5050506;28;20743;-59
2022/06/13 10:31:18;;;;;;;9.37;3.20;;;27.20;99.90;;;;;;5051862;28;20392;-59
2022/06/13 10:34:06;;;;;;;9.50;3.50;;;27.60;99.90;;;;;;5050994;28;20841;-58
2022/06/13 10:36:46;;;;;;;7.57;3.15;;;27.30;99.90;;;;;;5051240;28;20884;-58
2022/06/13 10:39:19;;;;;;;7.67;3.30;;;27.70;99.90;;;;;;5051024;28;20382;-59
2022/06/13 10:41:52;;;;;;;7.63;3.10;;;27.00;99.90;;;;;;5050914;28;20385;-58
2022/06/13 10:44:18;;;;;;;7.28;3.00;;;25.70;99.90;;;;;;5051307;28;20382;-59
2022/06/13 10:46:51;;;;;;;8.10;3.40;;;25.40;99.90;;;;;;5051313;28;20491;-58
2022/06/13 10:49:22;;;;;;;7.43;3.30;;;25.50;99.90;;;;;;5051259;28;20378;-59
2022/06/13 10:51:48;;;;;;;8.68;3.00;;;26.10;99.90;;;;;;5050590;28;20409;-55
2022/06/13 10:54:24;;;;;;;8.70;3.10;;;26.00;99.90;;;;;;5050786;28;20413;-58
2022/06/13 10:56:59;;;;;;;9.70;2.90;;;26.30;99.90;;;;;;5050281;28;20386;-54
2022/06/13 10:59:36;;;;;;;8.75;3.20;;;26.30;99.90;;;;;;5051088;28;20374;-58
2022/06/13 11:02:19;;;;;;;8.95;3.20;;;25.70;99.90;;;;;;5050280;28;20373;-59
2022/06/13 11:04:44;;;;;;;8.23;3.00;;;25.60;99.90;;;;;;5050792;28;20855;-58
2022/06/13 11:07:18;;;;;;;11.55;3.38;;;25.10;99.90;;;;;;5032575;28;20438;-57
2022/06/13 11:09:54;;;;;;;7.60;2.90;;;25.10;99.90;;;;;;5050331;28;21217;-58
2022/06/13 11:12:33;;;;;;;8.65;2.85;;;25.60;99.90;;;;;;5050719;28;20492;-58
2022/06/13 11:23:52;;;;;;;8.80;3.37;;;25.20;99.90;;;;;;5050154;28;20535;-58
2022/06/13 11:29:06;;;;;;;6.38;2.78;;;26.10;99.90;;;;;;5049266;28;20885;-57
2022/06/13 11:31:32;;;;;;;7.03;3.27;;;26.90;99.90;;;;;;5050226;28;20862;-58
2022/06/13 11:34:24;;;;;;;9.25;3.40;;;26.50;99.90;;;;;;5048736;28;20416;-58
2022/06/13 11:36:58;;;;;;;8.90;3.38;;;25.90;99.90;;;;;;5049624;28;20746;-54
2022/06/13 11:39:37;;;;;;;8.97;3.40;;;25.70;99.90;;;;;;5049692;28;20391;-59
2022/06/13 11:42:04;;;;;;;7.90;3.97;;;25.50;99.90;;;;;;5049132;28;20373;-58
2022/06/13 11:44:31;;;;;;;8.52;3.47;;;25.00;99.90;;;;;;5049812;28;20377;-58
2022/06/13 11:47:02;;;;;;;10.25;4.10;;;24.50;99.90;;;;;;5049103;28;20429;-58
2022/06/13 11:49:41;;;;;;;10.20;3.55;;;24.80;99.90;;;;;;5048169;28;20535;-57
2022/06/13 11:55:28;;;;;;;10.70;3.42;;;25.10;99.90;;;;;;5049601;28;20459;-55
2022/06/13 11:57:57;;;;;;;8.30;3.25;;;25.20;99.90;;;;;;5049083;28;20378;-58
2022/06/13 12:00:35;;;;;;;8.07;3.05;;;24.80;99.90;;;;;;5049539;28;20378;-58
2022/06/13 12:03:12;;;;;;;8.90;3.20;;;24.70;99.90;;;;;;5049018;28;20393;-59
2022/06/13 12:05:39;;;;;;;8.47;3.10;;;24.90;99.90;;;;;;5049327;28;20421;-58
2022/06/13 12:08:17;;;;;;;8.02;3.40;;;25.20;99.90;;;;;;5048952;28;20855;-58
2022/06/13 12:11:12;;;;;;;7.72;3.40;;;25.60;99.90;;;;;;5049416;28;20465;-59
2022/06/13 12:13:42;;;;;;;7.07;2.80;;;25.70;99.90;;;;;;5049381;28;20377;-59
2022/06/13 12:16:10;;;;;;;8.05;3.20;;;25.50;99.90;;;;;;5048722;28;20461;-59
2022/06/13 12:18:58;;;;;;;8.10;2.55;;;25.60;99.90;;;;;;5049629;28;20374;-59
2022/06/13 12:21:49;;;;;;;6.72;2.33;;;25.50;99.90;;;;;;5049690;28;20776;-59
2022/06/13 12:24:18;;;;;;;7.80;2.80;;;25.50;99.90;;;;;;5049062;28;20463;-58
2022/06/13 12:26:59;;;;;;;6.80;2.60;;;25.50;99.90;;;;;;5049497;28;20504;-59
2022/06/13 12:29:35;;;;;;;7.50;2.37;;;25.30;99.90;;;;;;5049245;28;20881;-59
2022/06/13 12:32:11;;;;;;;6.50;2.50;;;25.80;99.90;;;;;;5048825;28;20438;-59
2022/06/13 12:34:50;;;;;;;7.65;2.85;;;25.60;99.90;;;;;;5031530;28;20811;-59
2022/06/13 12:37:52;;;;;;;7.47;2.63;;;25.60;99.90;;;;;;5049524;28;20394;-59
2022/06/13 12:40:35;;;;;;;7.72;2.70;;;25.50;99.90;;;;;;5018055;28;20397;-59
2022/06/13 12:43:22;;;;;;;7.30;2.33;;;24.90;99.90;;;;;;5048448;28;20858;-59
2022/06/13 12:45:51;;;;;;;7.82;2.60;;;25.20;99.90;;;;;;5049149;28;20401;-58
2022/06/13 12:48:27;;;;;;;5.47;2.30;;;25.40;99.90;;;;;;5049047;28;20473;-58
2022/06/13 12:51:06;;;;;;;7.37;2.53;;;25.80;99.90;;;;;;5048646;28;20394;-54
2022/06/13 12:53:50;;;;;;;6.90;2.60;;;26.20;99.90;;;;;;5049349;28;20881;-58
2022/06/13 12:56:22;;;;;;;6.50;2.30;;;26.80;99.90;;;;;;5048662;28;20425;-58
2022/06/13 12:59:01;;;;;;;6.38;2.70;;;27.10;99.90;;;;;;5048862;28;20818;-55
2022/06/13 13:02:07;;;;;;;6.47;2.60;;;26.80;99.90;;;;;;5049156;28;20393;-58
2022/06/13 13:05:07;;;;;;;6.75;2.63;;;26.20;99.90;;;;;;5029226;28;20421;-59
2022/06/13 13:07:44;;;;;;;7.25;2.70;;;26.00;99.90;;;;;;5053054;28;20385;-58
2022/06/13 13:10:31;;;;;;;7.63;2.80;;;25.50;99.90;;;;;;5034256;28;20401;-58
2022/06/13 13:13:10;;;;;;;7.60;3.00;;;25.20;99.90;;;;;;5052042;28;20403;-58
2022/06/13 13:15:59;;;;;;;7.05;2.63;;;24.90;99.90;;;;;;5052745;28;20427;-58
2022/06/13 13:18:45;;;;;;;6.40;2.85;;;24.60;99.90;;;;;;5053053;28;20851;-58
2022/06/13 13:21:21;;;;;;;7.07;2.50;;;25.00;99.90;;;;;;5051928;28;20424;-58
2022/06/13 13:24:03;;;;;;;6.68;2.40;;;25.60;99.90;;;;;;5052497;28;20460;-59
2022/06/13 13:26:47;;;;;;;6.65;2.58;;;25.70;99.90;;;;;;5053135;28;20385;-58
2022/06/13 13:29:41;;;;;;;8.50;2.83;;;25.60;99.90;;;;;;5051793;28;20373;-59
2022/06/13 13:32:10;;;;;;;7.68;3.17;;;25.70;99.90;;;;;;5036614;28;20396;-59
2022/06/13 13:34:47;;;;;;;7.53;2.60;;;26.00;99.90;;;;;;5052664;28;20413;-58
2022/06/13 13:37:34;;;;;;;8.48;2.50;;;26.00;99.90;;;;;;5052099;28;20712;-59
2022/06/13 13:40:00;;;;;;;6.40;2.70;;;25.80;99.90;;;;;;5051566;28;20421;-59
2022/06/13 13:42:26;;;;;;;6.40;2.88;;;25.80;99.90;;;;;;5052304;28;20425;-58
2022/06/13 13:45:13;;;;;;;7.70;2.80;;;25.60;99.90;;;;;;5051906;28;20866;-54
2022/06/13 13:47:41;;;;;;;7.78;2.92;;;25.70;99.90;;;;;;5052540;28;20396;-58